createdAt,value
2022-12-14T00:00:47.426Z,10.18
2022-12-14T00:03:14.605Z,10.52
2022-12-14T00:05:41.769Z,9.20
2022-12-14T00:08:09.143Z,10.80
2022-12-14T00:10:36.549Z,8.75
2022-12-14T00:13:03.212Z,9.43
2022-12-14T00:15:30.279Z,8.80
2022-12-14T00:17:56.944Z,13.70
2022-12-14T00:20:23.798Z,10.80
2022-12-14T00:22:50.481Z,10.55
2022-12-14T00:25:17.117Z,7.97
2022-12-14T00:27:44.541Z,8.75
2022-12-14T00:30:15.586Z,9.80
2022-12-14T00:32:42.308Z,12.65
2022-12-14T00:35:09.689Z,8.80
2022-12-14T00:37:36.615Z,10.20
2022-12-14T00:40:04.354Z,9.40
2022-12-14T00:42:31.035Z,12.75
2022-12-14T00:44:57.630Z,12.45
2022-12-14T00:47:24.255Z,9.68
2022-12-14T00:49:50.876Z,9.25
2022-12-14T00:52:17.450Z,11.30
2022-12-14T00:54:44.793Z,10.77
2022-12-14T00:57:11.290Z,11.85
2022-12-14T00:59:37.922Z,8.52
2022-12-14T01:02:04.538Z,11.68
2022-12-14T01:04:31.166Z,8.27
2022-12-14T01:06:57.632Z,11.55
2022-12-14T01:09:25.400Z,12.60
2022-12-14T01:11:53.155Z,10.57
2022-12-14T01:14:20.809Z,13.20
2022-12-14T01:16:47.514Z,12.73
2022-12-14T01:19:14.734Z,10.80
2022-12-14T01:21:41.576Z,10.93
2022-12-14T01:24:08.793Z,7.50
2022-12-14T01:26:39.311Z,11.45
2022-12-14T01:29:06.655Z,9.35
2022-12-14T01:31:37.096Z,12.68
2022-12-14T01:34:03.770Z,11.55
2022-12-14T01:36:32.098Z,13.07
2022-12-14T01:38:59.486Z,11.10
2022-12-14T01:41:27.551Z,9.77
2022-12-14T01:43:54.053Z,7.63
2022-12-14T01:46:33.098Z,10.48
2022-12-14T01:49:02.071Z,9.07
2022-12-14T01:51:29.791Z,8.45
2022-12-14T01:53:57.595Z,11.38
2022-12-14T01:56:24.131Z,9.13
2022-12-14T01:58:50.692Z,9.75
2022-12-14T02:01:17.346Z,7.88
2022-12-14T02:03:47.444Z,8.43
2022-12-14T02:06:25.586Z,7.43
2022-12-14T02:08:53.706Z,7.32
2022-12-14T02:11:31.851Z,8.23
2022-12-14T02:13:58.467Z,7.10
2022-12-14T02:16:25.279Z,10.45
2022-12-14T02:18:51.818Z,10.73
2022-12-14T02:21:22.838Z,8.48
2022-12-14T02:24:07.727Z,5.50
2022-12-14T02:26:47.422Z,7.50
2022-12-14T02:29:37.202Z,8.35
2022-12-14T02:32:26.331Z,9.75
2022-12-14T02:35:07.799Z,7.65
2022-12-14T02:37:59.475Z,7.57
2022-12-14T02:40:30.141Z,6.93
2022-12-14T02:43:18.673Z,4.60
2022-12-14T02:45:49.288Z,7.38
2022-12-14T02:48:18.334Z,5.43
2022-12-14T02:50:51.475Z,6.97
2022-12-14T02:53:42.623Z,6.60
2022-12-14T02:56:11.517Z,4.88
2022-12-14T02:58:48.954Z,4.07
2022-12-14T03:01:16.708Z,2.83
2022-12-14T03:03:43.649Z,4.70
2022-12-14T03:06:16.715Z,8.25
2022-12-14T03:08:45.518Z,4.60
2022-12-14T03:11:14.855Z,6.15
2022-12-14T03:13:46.235Z,3.70
2022-12-14T03:16:20.196Z,6.38
2022-12-14T03:18:50.725Z,5.53
2022-12-14T03:21:19.207Z,4.65
2022-12-14T03:23:48.804Z,7.15
2022-12-14T03:26:15.483Z,5.65
2022-12-14T03:28:45.614Z,5.70
2022-12-14T03:31:15.550Z,6.88
2022-12-14T03:33:43.917Z,6.68
2022-12-14T03:36:16.370Z,5.07
2022-12-14T03:38:44.308Z,6.40
2022-12-14T03:41:18.858Z,7.70
2022-12-14T03:44:04.536Z,6.93
2022-12-14T03:46:34.423Z,3.50
2022-12-14T03:49:12.067Z,4.82
2022-12-14T03:52:01.162Z,6.22
2022-12-14T03:54:31.099Z,3.75
2022-12-14T03:57:16.662Z,2.20
2022-12-14T03:59:48.490Z,5.00
2022-12-14T04:02:24.390Z,5.07
2022-12-14T04:04:58.324Z,6.32
2022-12-14T04:07:24.909Z,3.78
2022-12-14T04:09:51.379Z,4.32
2022-12-14T04:12:53.857Z,4.95
2022-12-14T04:15:43.208Z,3.85
2022-12-14T04:18:32.297Z,7.07
2022-12-14T04:21:05.498Z,6.88
2022-12-14T04:23:52.985Z,7.03
2022-12-14T04:26:22.911Z,7.50
2022-12-14T04:29:11.183Z,7.72
2022-12-14T04:31:39.931Z,5.18
2022-12-14T04:34:07.109Z,4.70
2022-12-14T04:36:42.963Z,7.68
2022-12-14T04:39:14.028Z,6.10
2022-12-14T04:41:45.682Z,5.85
2022-12-14T04:44:14.466Z,7.80
2022-12-14T04:46:41.727Z,5.82
2022-12-14T04:49:16.733Z,7.55
2022-12-14T04:51:47.918Z,8.20
2022-12-14T04:54:29.917Z,8.00
2022-12-14T04:57:00.934Z,7.47
2022-12-14T04:59:27.511Z,10.02
2022-12-14T05:02:11.612Z,6.85
2022-12-14T05:04:54.878Z,7.25
2022-12-14T05:07:27.472Z,7.07
2022-12-14T05:10:23.384Z,7.28
2022-12-14T05:12:49.865Z,6.53
2022-12-14T05:15:23.333Z,5.63
2022-12-14T05:17:50.203Z,6.68
2022-12-14T05:20:18.342Z,5.57
2022-12-14T05:22:45.209Z,6.80
2022-12-14T05:25:11.685Z,6.85
2022-12-14T05:27:38.348Z,6.80
2022-12-14T05:30:06.628Z,5.55
2022-12-14T05:32:33.532Z,6.70
2022-12-14T05:35:00.229Z,5.03
2022-12-14T05:37:26.768Z,4.43
2022-12-14T05:39:54.020Z,4.50
2022-12-14T05:42:20.825Z,3.80
2022-12-14T05:44:47.383Z,4.88
2022-12-14T05:47:14.135Z,4.65
2022-12-14T05:49:40.724Z,2.97
2022-12-14T05:52:07.417Z,5.70
2022-12-14T05:54:33.966Z,5.85
2022-12-14T05:57:00.580Z,5.93
2022-12-14T05:59:27.309Z,2.00
2022-12-14T06:01:54.007Z,6.32
2022-12-14T06:04:20.776Z,5.50
2022-12-14T06:06:47.380Z,2.92
2022-12-14T06:09:15.618Z,4.57
2022-12-14T06:11:42.424Z,3.95
2022-12-14T06:14:09.518Z,4.28
2022-12-14T06:16:36.594Z,6.65
2022-12-14T06:19:04.244Z,2.58
2022-12-14T06:21:32.383Z,5.20
2022-12-14T06:23:59.508Z,4.80
2022-12-14T06:26:27.292Z,4.80
2022-12-14T06:28:54.869Z,5.35
2022-12-14T06:31:22.621Z,6.40
2022-12-14T06:33:49.479Z,7.97
2022-12-14T06:36:17.869Z,9.65
2022-12-14T06:38:44.540Z,7.85
2022-12-14T06:41:12.333Z,9.25
2022-12-14T06:43:38.788Z,8.70
2022-12-14T06:46:15.528Z,7.65
2022-12-14T06:48:42.714Z,8.40
2022-12-14T06:51:09.436Z,4.72
2022-12-14T06:53:36.270Z,5.53
2022-12-14T06:56:10.553Z,7.20
2022-12-14T06:58:37.172Z,5.43
2022-12-14T07:01:13.214Z,8.10
2022-12-14T07:03:42.792Z,6.90
2022-12-14T07:06:10.161Z,7.18
2022-12-14T07:08:37.614Z,7.82
2022-12-14T07:11:05.482Z,8.38
2022-12-14T07:13:32.036Z,9.35
2022-12-14T07:15:59.459Z,8.63
2022-12-14T07:18:26.804Z,8.65
2022-12-14T07:21:04.268Z,10.00
2022-12-14T07:23:32.344Z,10.60
2022-12-14T07:26:06.514Z,10.05
2022-12-14T07:28:33.670Z,10.38
2022-12-14T07:31:01.640Z,10.07
2022-12-14T07:33:28.793Z,10.52
2022-12-14T07:36:09.885Z,11.45
2022-12-14T07:38:37.119Z,12.07
2022-12-14T07:41:08.233Z,15.60
2022-12-14T07:43:35.072Z,30.50
2022-12-14T07:46:03.179Z,64.45
2022-12-14T07:48:29.786Z,14.73
2022-12-14T07:51:01.631Z,13.30
2022-12-14T07:53:28.665Z,11.80
2022-12-14T07:55:55.517Z,13.93
2022-12-14T07:58:22.667Z,11.95
2022-12-14T08:00:49.196Z,14.73
2022-12-14T08:03:15.829Z,12.93
2022-12-14T08:05:42.475Z,21.60
2022-12-14T08:08:09.020Z,11.52
2022-12-14T08:10:40.195Z,11.55
2022-12-14T08:13:07.129Z,12.60
2022-12-14T08:15:36.738Z,12.05
2022-12-14T08:18:03.255Z,9.70
2022-12-14T08:20:29.909Z,10.13
2022-12-14T08:22:56.431Z,10.10
2022-12-14T08:25:22.915Z,8.52
2022-12-14T08:27:49.445Z,8.50
2022-12-14T08:30:16.114Z,8.50
2022-12-14T08:32:42.639Z,10.45
2022-12-14T08:35:09.351Z,10.27
2022-12-14T08:37:35.869Z,11.80
2022-12-14T08:40:03.623Z,11.10
2022-12-14T08:42:30.502Z,11.07
2022-12-14T08:44:57.081Z,12.10
2022-12-14T08:47:23.630Z,11.90
2022-12-14T08:49:50.249Z,11.25
2022-12-14T08:52:16.955Z,10.60
2022-12-14T08:54:43.503Z,12.30
2022-12-14T08:57:10.111Z,10.85
2022-12-14T09:00:00.697Z,11.70
2022-12-14T09:02:23.362Z,14.55
2022-12-14T09:04:50.003Z,11.65
2022-12-14T09:07:16.552Z,13.10
2022-12-14T09:09:43.286Z,10.18
2022-12-14T09:12:09.868Z,11.52
2022-12-14T09:14:36.602Z,9.05
2022-12-14T09:17:03.514Z,8.70
2022-12-14T09:19:30.165Z,7.90
2022-12-14T09:21:58.150Z,8.88
2022-12-14T09:24:24.831Z,9.25
2022-12-14T09:26:51.667Z,8.82
2022-12-14T09:29:18.579Z,8.73
2022-12-14T09:31:45.572Z,9.10
2022-12-14T09:34:12.602Z,9.38
2022-12-14T09:36:39.286Z,7.95
2022-12-14T09:39:06.110Z,6.90
2022-12-14T09:41:35.866Z,8.48
2022-12-14T09:44:18.142Z,10.88
2022-12-14T09:47:04.376Z,6.63
2022-12-14T09:49:32.565Z,8.52
2022-12-14T09:52:04.046Z,8.18
2022-12-14T09:54:36.108Z,6.18
2022-12-14T09:57:06.748Z,8.60
2022-12-14T09:59:34.156Z,10.40
2022-12-14T10:02:34.490Z,9.38
2022-12-14T10:05:05.317Z,10.15
2022-12-14T10:07:50.659Z,9.52
2022-12-14T10:10:21.717Z,11.20
2022-12-14T10:12:57.340Z,7.07
2022-12-14T10:15:26.831Z,10.93
2022-12-14T10:18:17.552Z,10.52
2022-12-14T10:21:28.215Z,9.77
2022-12-14T10:24:01.575Z,9.75
2022-12-14T10:26:35.958Z,11.52
2022-12-14T10:29:05.070Z,12.85
2022-12-14T10:31:41.000Z,12.23
2022-12-14T10:34:15.597Z,33.47
2022-12-14T10:36:51.819Z,38.85
2022-12-14T10:39:24.538Z,62.25
2022-12-14T10:41:55.135Z,31.75
2022-12-14T10:44:25.180Z,45.85
2022-12-14T10:47:10.782Z,34.30
2022-12-14T10:49:57.647Z,19.73
2022-12-14T10:52:26.970Z,18.25
2022-12-14T10:54:55.658Z,27.85
2022-12-14T10:57:26.458Z,20.67
2022-12-14T11:00:07.737Z,46.38
2022-12-14T11:02:38.457Z,42.80
2022-12-14T11:05:16.800Z,31.45
2022-12-14T11:07:45.713Z,14.43
2022-12-14T11:10:17.092Z,14.87
2022-12-14T11:12:53.490Z,15.23
2022-12-14T11:15:25.883Z,15.20
2022-12-14T11:18:21.873Z,28.23
2022-12-14T11:20:53.336Z,35.90
2022-12-14T11:23:20.913Z,23.80
2022-12-14T11:25:48.997Z,83.82
2022-12-14T11:28:15.595Z,36.38
2022-12-14T11:30:52.157Z,14.45
2022-12-14T11:33:18.779Z,22.98
2022-12-14T11:35:52.634Z,19.90
2022-12-14T11:38:19.916Z,100.00
2022-12-14T11:40:47.148Z,15.23
2022-12-14T11:43:23.730Z,38.88
2022-12-14T11:45:51.162Z,149.18
2022-12-14T11:48:19.994Z,24.45
2022-12-14T11:50:48.284Z,24.48
2022-12-14T11:53:16.148Z,14.60
2022-12-14T11:55:48.795Z,42.47
2022-12-14T11:58:18.432Z,13.40
2022-12-14T12:00:47.603Z,13.03
2022-12-14T12:03:18.419Z,14.70
2022-12-14T12:05:45.086Z,16.70
2022-12-14T12:08:17.617Z,15.53
2022-12-14T12:10:50.320Z,16.03
2022-12-14T12:13:20.334Z,24.07
2022-12-14T12:15:50.178Z,21.40
2022-12-14T12:18:27.455Z,18.50
2022-12-14T12:21:07.111Z,17.10
2022-12-14T12:23:54.036Z,15.10
2022-12-14T12:26:27.494Z,17.17
2022-12-14T12:29:02.784Z,16.63
2022-12-14T12:31:40.913Z,15.13
2022-12-14T12:34:17.127Z,15.50
2022-12-14T12:37:17.101Z,14.90
2022-12-14T12:39:31.952Z,13.40
2022-12-14T12:42:21.927Z,14.93
2022-12-14T12:45:04.661Z,15.63
2022-12-14T12:47:47.203Z,16.57
2022-12-14T12:50:23.127Z,15.83
2022-12-14T12:53:08.416Z,13.40
2022-12-14T12:55:37.835Z,14.70
2022-12-14T12:58:09.463Z,15.23
2022-12-14T13:00:38.043Z,15.00
2022-12-14T13:03:07.787Z,13.90
2022-12-14T13:05:49.938Z,15.37
2022-12-14T13:08:16.525Z,15.27
2022-12-14T13:11:09.114Z,16.23
2022-12-14T13:13:33.101Z,14.40
2022-12-14T13:16:06.971Z,14.20
2022-12-14T13:21:37.355Z,15.30
2022-12-14T13:24:04.984Z,15.47
2022-12-14T13:26:59.012Z,16.50
2022-12-14T13:29:37.622Z,14.60
2022-12-14T13:32:10.370Z,14.77
2022-12-14T13:34:41.276Z,15.10
2022-12-14T13:37:26.677Z,15.70
2022-12-14T13:40:11.966Z,14.87
2022-12-14T13:42:41.713Z,19.20
2022-12-14T13:45:34.832Z,14.60
2022-12-14T13:48:06.225Z,123.33
2022-12-14T13:50:39.131Z,42.63
2022-12-14T13:53:12.042Z,16.10
2022-12-14T13:55:46.120Z,18.23
2022-12-14T13:58:17.229Z,17.43
2022-12-14T14:00:55.896Z,13.30
2022-12-14T14:03:34.979Z,14.83
2022-12-14T14:06:09.020Z,15.17
2022-12-14T14:08:41.796Z,15.10
2022-12-14T14:11:36.537Z,14.83
2022-12-14T14:14:11.482Z,17.60
2022-12-14T14:16:41.794Z,15.17
2022-12-14T14:19:08.406Z,14.90
2022-12-14T14:22:06.008Z,14.70
2022-12-14T14:24:29.473Z,15.50
2022-12-14T14:27:00.835Z,15.73
2022-12-14T14:29:31.389Z,15.13
2022-12-14T14:32:02.897Z,16.40
2022-12-14T14:34:44.725Z,17.30
2022-12-14T14:37:20.469Z,15.50
2022-12-14T14:40:07.191Z,15.00
2022-12-14T14:43:06.257Z,16.10
2022-12-14T14:45:40.790Z,15.50
2022-12-14T14:48:33.769Z,16.13
2022-12-14T14:51:14.452Z,15.17
2022-12-14T14:53:41.307Z,16.20
2022-12-14T14:56:12.604Z,15.03
2022-12-14T14:58:40.619Z,16.93
2022-12-14T15:01:19.986Z,13.70
2022-12-14T15:03:53.195Z,16.60
2022-12-14T15:06:28.374Z,15.50
2022-12-14T15:09:15.288Z,19.00
2022-12-14T15:11:46.518Z,16.77
2022-12-14T15:14:17.790Z,14.70
2022-12-14T15:16:45.756Z,14.15
2022-12-14T15:19:22.922Z,17.90
2022-12-14T15:22:00.621Z,26.17
2022-12-14T15:24:27.387Z,28.35
2022-12-14T15:26:53.994Z,91.85
2022-12-14T15:29:24.169Z,43.28
2022-12-14T15:31:59.075Z,43.92
2022-12-14T15:34:26.683Z,35.35
2022-12-14T15:36:53.864Z,29.67
2022-12-14T15:39:32.835Z,44.47
2022-12-14T15:42:03.341Z,50.28
2022-12-14T15:44:30.020Z,38.70
2022-12-14T15:46:56.581Z,37.95
2022-12-14T15:49:23.124Z,28.83
2022-12-14T15:51:50.276Z,26.27
2022-12-14T15:54:22.399Z,24.67
2022-12-14T15:56:53.810Z,25.40
2022-12-14T15:59:22.360Z,27.55
2022-12-14T16:01:56.786Z,30.23
2022-12-14T16:04:27.695Z,30.58
2022-12-14T16:07:09.166Z,26.80
2022-12-14T16:09:50.225Z,27.52
2022-12-14T16:12:24.319Z,26.65
2022-12-14T16:14:58.691Z,36.15
2022-12-14T16:17:30.515Z,25.35
2022-12-14T16:20:00.473Z,27.90
2022-12-14T16:22:32.198Z,26.38
2022-12-14T16:25:08.114Z,26.85
2022-12-14T16:27:42.503Z,22.38
2022-12-14T16:30:17.577Z,20.45
2022-12-14T16:32:45.080Z,21.73
2022-12-14T16:35:24.779Z,23.58
2022-12-14T16:37:53.257Z,25.25
2022-12-14T16:40:40.164Z,25.90
2022-12-14T16:43:07.513Z,22.45
2022-12-14T16:45:43.573Z,24.80
2022-12-14T16:48:18.060Z,23.90
2022-12-14T16:51:07.893Z,24.95
2022-12-14T16:53:31.765Z,25.08
2022-12-14T16:56:15.538Z,26.55
2022-12-14T16:58:50.634Z,29.75
2022-12-14T17:01:17.554Z,27.80
2022-12-14T17:03:50.573Z,30.55
2022-12-14T17:06:30.055Z,31.55
2022-12-14T17:08:56.802Z,29.42
2022-12-14T17:11:23.529Z,31.35
2022-12-14T17:13:50.111Z,27.92
2022-12-14T17:16:18.779Z,25.67
2022-12-14T17:18:45.441Z,30.83
2022-12-14T17:21:28.789Z,41.83
2022-12-14T17:23:56.068Z,26.73
2022-12-14T17:26:27.348Z,28.50
2022-12-14T17:28:54.667Z,28.65
2022-12-14T17:31:23.579Z,30.00
2022-12-14T17:33:54.558Z,25.83
2022-12-14T17:36:21.200Z,29.90
2022-12-14T17:38:47.897Z,45.85
2022-12-14T17:41:18.518Z,28.90
2022-12-14T17:43:49.943Z,35.17
2022-12-14T17:46:20.391Z,32.95
2022-12-14T17:48:47.231Z,33.63
2022-12-14T17:51:20.915Z,34.20
2022-12-14T17:53:47.637Z,30.98
2022-12-14T17:56:14.398Z,33.70
2022-12-14T17:58:41.042Z,38.53
2022-12-14T18:01:07.766Z,41.17
2022-12-14T18:03:37.782Z,39.13
2022-12-14T18:06:04.667Z,37.53
2022-12-14T18:08:31.394Z,42.25
2022-12-14T18:11:13.332Z,46.72
2022-12-14T18:13:40.968Z,39.05
2022-12-14T18:16:10.468Z,36.35
2022-12-14T18:18:37.126Z,35.25
2022-12-14T18:21:04.760Z,34.67
2022-12-14T18:23:31.906Z,30.67
2022-12-14T18:25:59.716Z,31.45
2022-12-14T18:28:26.451Z,33.40
2022-12-14T18:30:55.564Z,30.75
2022-12-14T18:33:23.629Z,32.88
2022-12-14T18:35:50.891Z,35.17
2022-12-14T18:38:17.616Z,39.95
2022-12-14T18:40:49.385Z,38.90
2022-12-14T18:43:26.838Z,38.78
2022-12-14T18:45:54.201Z,43.42
2022-12-14T18:48:21.284Z,47.78
2022-12-14T18:50:49.812Z,41.67
2022-12-14T18:53:18.121Z,41.08
2022-12-14T18:55:44.794Z,39.30
2022-12-14T18:58:16.136Z,41.03
2022-12-14T19:00:43.369Z,45.53
2022-12-14T19:03:10.149Z,48.28
2022-12-14T19:05:37.161Z,38.22
2022-12-14T19:08:04.035Z,37.53
2022-12-14T19:10:31.853Z,40.88
2022-12-14T19:12:58.782Z,38.78
2022-12-14T19:15:27.275Z,34.70
2022-12-14T19:17:54.291Z,35.20
2022-12-14T19:20:21.924Z,42.80
2022-12-14T19:22:48.834Z,44.55
2022-12-14T19:25:15.728Z,37.38
2022-12-14T19:28:25.808Z,36.97
2022-12-14T19:30:30.250Z,32.30
2022-12-14T19:32:58.774Z,30.65
2022-12-14T19:35:25.737Z,31.70
2022-12-14T19:37:52.657Z,35.33
2022-12-14T19:40:20.387Z,33.80
2022-12-14T19:42:47.156Z,32.53
2022-12-14T19:45:14.451Z,32.28
2022-12-14T19:47:41.201Z,32.90
2022-12-14T19:50:07.975Z,33.42
2022-12-14T19:52:34.964Z,34.47
2022-12-14T19:55:01.916Z,34.67
2022-12-14T19:57:28.488Z,35.15
2022-12-14T19:59:56.961Z,35.05
2022-12-14T20:02:23.821Z,35.17
2022-12-14T20:04:50.733Z,36.75
2022-12-14T20:07:17.479Z,38.13
2022-12-14T20:09:44.048Z,35.28
2022-12-14T20:12:11.385Z,36.30
2022-12-14T20:14:40.056Z,36.60
2022-12-14T20:17:07.694Z,37.13
2022-12-14T20:19:36.299Z,33.78
2022-12-14T20:22:03.476Z,36.75
2022-12-14T20:24:30.075Z,34.25
2022-12-14T20:26:56.762Z,42.63
2022-12-14T20:29:23.271Z,33.03
2022-12-14T20:31:49.867Z,31.95
2022-12-14T20:34:16.628Z,31.75
2022-12-14T20:36:43.241Z,41.20
2022-12-14T20:39:10.074Z,44.22
2022-12-14T20:41:36.732Z,37.42
2022-12-14T20:44:06.401Z,37.85
2022-12-14T20:46:34.039Z,43.20
2022-12-14T20:49:02.375Z,34.45
2022-12-14T20:51:30.602Z,36.38
2022-12-14T20:53:57.553Z,37.17
2022-12-14T20:56:24.401Z,38.35
2022-12-14T20:58:51.617Z,39.05
2022-12-14T21:01:18.739Z,40.50
2022-12-14T21:03:48.528Z,40.78
2022-12-14T21:06:16.636Z,40.78
2022-12-14T21:09:01.803Z,40.03
2022-12-14T21:11:47.448Z,41.00
2022-12-14T21:14:14.279Z,40.95
2022-12-14T21:16:40.940Z,40.20
2022-12-14T21:19:07.747Z,38.22
2022-12-14T21:21:34.570Z,38.40
2022-12-14T21:24:01.166Z,42.33
2022-12-14T21:26:28.408Z,43.75
2022-12-14T21:28:55.317Z,53.17
2022-12-14T21:31:22.272Z,42.30
2022-12-14T21:33:50.030Z,44.92
2022-12-14T21:36:16.724Z,39.92
2022-12-14T21:38:43.329Z,41.45
2022-12-14T21:41:29.206Z,41.15
2022-12-14T21:43:55.761Z,41.17
2022-12-14T21:46:25.523Z,41.92
2022-12-14T21:48:55.711Z,39.22
2022-12-14T21:51:22.296Z,40.95
2022-12-14T21:54:01.637Z,41.40
2022-12-14T21:56:51.788Z,39.38
2022-12-14T21:59:24.200Z,40.15
2022-12-14T22:01:50.909Z,44.75
2022-12-14T22:04:17.598Z,46.60
2022-12-14T22:06:44.286Z,47.85
2022-12-14T22:09:11.056Z,43.40
2022-12-14T22:11:37.636Z,40.33
2022-12-14T22:14:04.254Z,41.00
2022-12-14T22:16:32.002Z,42.20
2022-12-14T22:18:59.478Z,42.58
2022-12-14T22:21:26.566Z,42.45
2022-12-14T22:23:56.660Z,35.97
2022-12-14T22:26:23.697Z,41.10
2022-12-14T22:28:53.549Z,40.88
2022-12-14T22:31:20.704Z,41.95
2022-12-14T22:33:49.562Z,42.40
2022-12-14T22:36:17.100Z,42.38
2022-12-14T22:38:44.367Z,44.08
2022-12-14T22:41:13.179Z,43.67
2022-12-14T22:43:40.260Z,42.17
2022-12-14T22:46:07.470Z,48.25
2022-12-14T22:48:34.989Z,45.22
2022-12-14T22:51:02.959Z,47.35
2022-12-14T22:53:30.102Z,43.38
2022-12-14T22:56:02.134Z,44.88
2022-12-14T22:58:29.109Z,44.60
2022-12-14T23:00:55.697Z,40.05
2022-12-14T23:03:23.213Z,34.60
2022-12-14T23:05:49.897Z,30.95
2022-12-14T23:08:16.581Z,34.83
2022-12-14T23:11:02.000Z,32.17
2022-12-14T23:13:47.226Z,34.28
2022-12-14T23:16:32.479Z,25.58
2022-12-14T23:19:17.775Z,33.78
2022-12-14T23:22:04.243Z,35.53
2022-12-14T23:24:50.203Z,36.60
2022-12-14T23:27:35.573Z,36.75
2022-12-14T23:30:20.617Z,38.13
2022-12-14T23:33:05.768Z,36.42
2022-12-14T23:35:51.241Z,34.42
2022-12-14T23:38:36.590Z,31.42
2022-12-14T23:41:21.919Z,38.20
2022-12-14T23:44:07.333Z,35.45
2022-12-14T23:46:52.576Z,37.15
2022-12-14T23:49:37.951Z,36.22
2022-12-14T23:52:22.888Z,37.00
2022-12-14T23:55:08.084Z,39.58
2022-12-14T23:57:53.365Z,37.58
